sensor_id;sensor_type;location;lat;lon;timestamp;P1;durP1;ratioP1;P2;durP2;ratioP2
60354;SDS011;46198;51.464;-0.066;2024-03-06T00:01:17;24.13;;;13.90;;
60354;SDS011;46198;51.464;-0.066;2024-03-06T00:03:45;24.63;;;13.60;;
60354;SDS011;46198;51.464;-0.066;2024-03-06T00:06:14;23.13;;;12.77;;
60354;SDS011;46198;51.464;-0.066;2024-03-06T00:08:42;25.20;;;13.70;;
60354;SDS011;46198;51.464;-0.066;2024-03-06T00:11:11;27.70;;;14.07;;
60354;SDS011;46198;51.464;-0.066;2024-03-06T00:16:59;25.70;;;13.80;;
60354;SDS011;46198;51.464;-0.066;2024-03-06T00:19:27;25.40;;;13.87;;
60354;SDS011;46198;51.464;-0.066;2024-03-06T00:21:55;22.00;;;12.87;;
60354;SDS011;46198;51.464;-0.066;2024-03-06T00:27:42;26.33;;;13.77;;
60354;SDS011;46198;51.464;-0.066;2024-03-06T00:30:11;25.17;;;14.57;;
60354;SDS011;46198;51.464;-0.066;2024-03-06T00:32:40;25.57;;;13.50;;
60354;SDS011;46198;51.464;-0.066;2024-03-06T00:35:09;24.93;;;12.93;;
60354;SDS011;46198;51.464;-0.066;2024-03-06T00:37:39;23.70;;;12.77;;
60354;SDS011;46198;51.464;-0.066;2024-03-06T00:40:08;20.93;;;12.90;;
60354;SDS011;46198;51.464;-0.066;2024-03-06T00:42:37;25.30;;;14.07;;
60354;SDS011;46198;51.464;-0.066;2024-03-06T00:45:08;23.52;;;13.45;;
60354;SDS011;46198;51.464;-0.066;2024-03-06T00:47:36;24.20;;;13.87;;
60354;SDS011;46198;51.464;-0.066;2024-03-06T00:50:06;25.27;;;14.63;;
60354;SDS011;46198;51.464;-0.066;2024-03-06T00:52:35;28.90;;;16.00;;
60354;SDS011;46198;51.464;-0.066;2024-03-06T00:55:03;24.40;;;13.00;;
60354;SDS011;46198;51.464;-0.066;2024-03-06T00:57:32;25.37;;;14.23;;
60354;SDS011;46198;51.464;-0.066;2024-03-06T01:00:00;25.40;;;14.40;;
60354;SDS011;46198;51.464;-0.066;2024-03-06T01:02:32;22.90;;;14.47;;
60354;SDS011;46198;51.464;-0.066;2024-03-06T01:05:01;23.77;;;13.73;;
60354;SDS011;46198;51.464;-0.066;2024-03-06T01:07:32;27.33;;;14.40;;
60354;SDS011;46198;51.464;-0.066;2024-03-06T01:10:01;23.60;;;13.65;;
60354;SDS011;46198;51.464;-0.066;2024-03-06T01:12:29;22.90;;;13.50;;
60354;SDS011;46198;51.464;-0.066;2024-03-06T01:15:01;24.67;;;13.37;;
60354;SDS011;46198;51.464;-0.066;2024-03-06T01:17:29;24.13;;;13.30;;
60354;SDS011;46198;51.464;-0.066;2024-03-06T01:19:57;25.20;;;13.97;;
60354;SDS011;46198;51.464;-0.066;2024-03-06T01:22:28;25.63;;;13.68;;
60354;SDS011;46198;51.464;-0.066;2024-03-06T01:24:58;24.60;;;14.00;;
60354;SDS011;46198;51.464;-0.066;2024-03-06T01:27:29;24.37;;;12.97;;
60354;SDS011;46198;51.464;-0.066;2024-03-06T01:29:58;24.50;;;13.73;;
60354;SDS011;46198;51.464;-0.066;2024-03-06T01:32:29;26.43;;;14.77;;
60354;SDS011;46198;51.464;-0.066;2024-03-06T01:34:59;23.33;;;13.87;;
60354;SDS011;46198;51.464;-0.066;2024-03-06T01:37:28;26.37;;;14.17;;
60354;SDS011;46198;51.464;-0.066;2024-03-06T01:40:00;26.97;;;15.07;;
60354;SDS011;46198;51.464;-0.066;2024-03-06T01:42:31;24.80;;;14.20;;
60354;SDS011;46198;51.464;-0.066;2024-03-06T01:45:02;23.93;;;14.47;;
60354;SDS011;46198;51.464;-0.066;2024-03-06T01:47:31;26.47;;;14.10;;
60354;SDS011;46198;51.464;-0.066;2024-03-06T01:50:00;25.63;;;14.20;;
60354;SDS011;46198;51.464;-0.066;2024-03-06T01:52:32;23.63;;;13.83;;
60354;SDS011;46198;51.464;-0.066;2024-03-06T01:58:00;24.17;;;13.70;;
60354;SDS011;46198;51.464;-0.066;2024-03-06T02:00:29;21.70;;;12.47;;
60354;SDS011;46198;51.464;-0.066;2024-03-06T02:02:57;25.90;;;13.77;;
60354;SDS011;46198;51.464;-0.066;2024-03-06T02:05:26;28.20;;;15.23;;
60354;SDS011;46198;51.464;-0.066;2024-03-06T02:07:58;24.50;;;14.07;;
60354;SDS011;46198;51.464;-0.066;2024-03-06T02:10:27;25.90;;;15.50;;
60354;SDS011;46198;51.464;-0.066;2024-03-06T02:12:57;27.38;;;15.70;;
60354;SDS011;46198;51.464;-0.066;2024-03-06T02:15:27;26.25;;;13.90;;
60354;SDS011;46198;51.464;-0.066;2024-03-06T02:17:56;26.73;;;14.03;;
60354;SDS011;46198;51.464;-0.066;2024-03-06T02:20:27;21.67;;;13.57;;
60354;SDS011;46198;51.464;-0.066;2024-03-06T02:22:55;27.17;;;14.50;;
60354;SDS011;46198;51.464;-0.066;2024-03-06T02:25:23;23.63;;;12.77;;
60354;SDS011;46198;51.464;-0.066;2024-03-06T02:27:52;28.57;;;13.87;;
60354;SDS011;46198;51.464;-0.066;2024-03-06T02:30:20;27.00;;;14.23;;
60354;SDS011;46198;51.464;-0.066;2024-03-06T02:32:48;27.87;;;13.63;;
60354;SDS011;46198;51.464;-0.066;2024-03-06T02:35:17;26.70;;;14.03;;
60354;SDS011;46198;51.464;-0.066;2024-03-06T02:37:47;26.93;;;14.20;;
60354;SDS011;46198;51.464;-0.066;2024-03-06T02:40:15;23.87;;;12.93;;
60354;SDS011;46198;51.464;-0.066;2024-03-06T02:42:43;25.83;;;14.90;;
60354;SDS011;46198;51.464;-0.066;2024-03-06T02:45:14;24.05;;;13.65;;
60354;SDS011;46198;51.464;-0.066;2024-03-06T02:47:44;28.77;;;14.77;;
60354;SDS011;46198;51.464;-0.066;2024-03-06T02:50:12;27.67;;;14.70;;
60354;SDS011;46198;51.464;-0.066;2024-03-06T02:52:41;29.63;;;15.57;;
60354;SDS011;46198;51.464;-0.066;2024-03-06T02:55:11;28.00;;;14.93;;
60354;SDS011;46198;51.464;-0.066;2024-03-06T02:57:40;30.58;;;15.50;;
60354;SDS011;46198;51.464;-0.066;2024-03-06T03:00:09;32.00;;;16.10;;
60354;SDS011;46198;51.464;-0.066;2024-03-06T03:02:40;28.63;;;15.50;;
60354;SDS011;46198;51.464;-0.066;2024-03-06T03:05:11;30.40;;;15.93;;
60354;SDS011;46198;51.464;-0.066;2024-03-06T03:10:35;27.60;;;14.80;;
60354;SDS011;46198;51.464;-0.066;2024-03-06T03:13:03;28.87;;;15.33;;
60354;SDS011;46198;51.464;-0.066;2024-03-06T03:15:33;32.90;;;16.17;;
60354;SDS011;46198;51.464;-0.066;2024-03-06T03:18:01;32.87;;;15.10;;
60354;SDS011;46198;51.464;-0.066;2024-03-06T03:20:30;27.97;;;15.00;;
60354;SDS011;46198;51.464;-0.066;2024-03-06T03:22:59;28.47;;;14.63;;
60354;SDS011;46198;51.464;-0.066;2024-03-06T03:25:28;26.67;;;14.00;;
60354;SDS011;46198;51.464;-0.066;2024-03-06T03:27:58;29.17;;;15.43;;
60354;SDS011;46198;51.464;-0.066;2024-03-06T03:30:26;29.40;;;15.43;;
60354;SDS011;46198;51.464;-0.066;2024-03-06T03:32:55;27.50;;;14.67;;
60354;SDS011;46198;51.464;-0.066;2024-03-06T03:35:23;29.80;;;15.60;;
60354;SDS011;46198;51.464;-0.066;2024-03-06T03:37:52;30.33;;;14.87;;
60354;SDS011;46198;51.464;-0.066;2024-03-06T03:40:22;29.87;;;15.33;;
60354;SDS011;46198;51.464;-0.066;2024-03-06T03:42:53;31.43;;;15.63;;
60354;SDS011;46198;51.464;-0.066;2024-03-06T03:45:23;30.23;;;15.13;;
60354;SDS011;46198;51.464;-0.066;2024-03-06T03:47:52;29.43;;;14.60;;
60354;SDS011;46198;51.464;-0.066;2024-03-06T03:50:23;32.42;;;15.50;;
60354;SDS011;46198;51.464;-0.066;2024-03-06T03:52:52;33.70;;;16.73;;
60354;SDS011;46198;51.464;-0.066;2024-03-06T03:55:20;34.67;;;16.40;;
60354;SDS011;46198;51.464;-0.066;2024-03-06T03:57:48;34.37;;;16.30;;
60354;SDS011;46198;51.464;-0.066;2024-03-06T04:00:17;30.67;;;15.80;;
60354;SDS011;46198;51.464;-0.066;2024-03-06T04:02:47;31.93;;;15.67;;
60354;SDS011;46198;51.464;-0.066;2024-03-06T04:05:16;32.17;;;15.73;;
60354;SDS011;46198;51.464;-0.066;2024-03-06T04:07:44;38.90;;;16.17;;
60354;SDS011;46198;51.464;-0.066;2024-03-06T04:10:12;29.20;;;15.63;;
60354;SDS011;46198;51.464;-0.066;2024-03-06T04:12:40;34.67;;;16.93;;
60354;SDS011;46198;51.464;-0.066;2024-03-06T04:15:09;29.03;;;14.47;;
60354;SDS011;46198;51.464;-0.066;2024-03-06T04:17:37;32.87;;;15.37;;
60354;SDS011;46198;51.464;-0.066;2024-03-06T04:20:09;34.17;;;16.90;;
60354;SDS011;46198;51.464;-0.066;2024-03-06T04:22:39;28.03;;;15.27;;
60354;SDS011;46198;51.464;-0.066;2024-03-06T04:25:08;32.53;;;16.43;;
60354;SDS011;46198;51.464;-0.066;2024-03-06T04:27:37;33.33;;;16.30;;
60354;SDS011;46198;51.464;-0.066;2024-03-06T04:30:06;31.50;;;15.57;;
60354;SDS011;46198;51.464;-0.066;2024-03-06T04:32:35;34.47;;;16.05;;
60354;SDS011;46198;51.464;-0.066;2024-03-06T04:35:04;34.63;;;16.57;;
60354;SDS011;46198;51.464;-0.066;2024-03-06T04:37:35;32.07;;;16.00;;
60354;SDS011;46198;51.464;-0.066;2024-03-06T04:40:04;34.17;;;17.17;;
60354;SDS011;46198;51.464;-0.066;2024-03-06T04:42:34;35.15;;;16.08;;
60354;SDS011;46198;51.464;-0.066;2024-03-06T04:45:04;32.40;;;16.07;;
60354;SDS011;46198;51.464;-0.066;2024-03-06T04:47:36;33.27;;;15.93;;
60354;SDS011;46198;51.464;-0.066;2024-03-06T04:50:08;29.20;;;15.20;;
60354;SDS011;46198;51.464;-0.066;2024-03-06T04:52:39;28.80;;;14.77;;
60354;SDS011;46198;51.464;-0.066;2024-03-06T04:55:07;32.17;;;15.90;;
60354;SDS011;46198;51.464;-0.066;2024-03-06T04:57:38;36.58;;;16.58;;
60354;SDS011;46198;51.464;-0.066;2024-03-06T05:00:08;31.80;;;15.97;;
60354;SDS011;46198;51.464;-0.066;2024-03-06T05:02:37;33.17;;;15.93;;
60354;SDS011;46198;51.464;-0.066;2024-03-06T05:05:24;30.87;;;15.50;;
60354;SDS011;46198;51.464;-0.066;2024-03-06T05:08:14;34.37;;;15.57;;
60354;SDS011;46198;51.464;-0.066;2024-03-06T05:11:00;35.57;;;15.40;;
60354;SDS011;46198;51.464;-0.066;2024-03-06T05:13:46;34.73;;;15.87;;
60354;SDS011;46198;51.464;-0.066;2024-03-06T05:16:33;34.70;;;15.03;;
60354;SDS011;46198;51.464;-0.066;2024-03-06T05:19:18;35.03;;;16.53;;
60354;SDS011;46198;51.464;-0.066;2024-03-06T05:22:05;38.20;;;17.10;;
60354;SDS011;46198;51.464;-0.066;2024-03-06T05:24:52;32.97;;;16.10;;
60354;SDS011;46198;51.464;-0.066;2024-03-06T05:27:39;30.57;;;16.37;;
60354;SDS011;46198;51.464;-0.066;2024-03-06T05:36:21;33.37;;;16.43;;
60354;SDS011;46198;51.464;-0.066;2024-03-06T05:39:07;30.77;;;15.60;;
60354;SDS011;46198;51.464;-0.066;2024-03-06T05:42:01;37.83;;;15.80;;
60354;SDS011;46198;51.464;-0.066;2024-03-06T05:44:47;31.87;;;15.73;;
60354;SDS011;46198;51.464;-0.066;2024-03-06T05:47:34;32.07;;;15.57;;
60354;SDS011;46198;51.464;-0.066;2024-03-06T05:50:20;41.07;;;16.90;;
60354;SDS011;46198;51.464;-0.066;2024-03-06T05:53:05;35.43;;;16.00;;
60354;SDS011;46198;51.464;-0.066;2024-03-06T05:55:51;33.90;;;16.17;;
60354;SDS011;46198;51.464;-0.066;2024-03-06T05:58:39;33.17;;;15.73;;
60354;SDS011;46198;51.464;-0.066;2024-03-06T06:05:58;42.67;;;17.80;;
60354;SDS011;46198;51.464;-0.066;2024-03-06T06:08:27;48.20;;;19.67;;
60354;SDS011;46198;51.464;-0.066;2024-03-06T06:10:55;50.57;;;19.50;;
60354;SDS011;46198;51.464;-0.066;2024-03-06T06:13:24;47.10;;;20.33;;
60354;SDS011;46198;51.464;-0.066;2024-03-06T06:15:53;52.27;;;21.83;;
60354;SDS011;46198;51.464;-0.066;2024-03-06T06:18:22;45.80;;;19.57;;
60354;SDS011;46198;51.464;-0.066;2024-03-06T06:20:50;47.87;;;20.47;;
60354;SDS011;46198;51.464;-0.066;2024-03-06T06:23:18;52.87;;;20.80;;
60354;SDS011;46198;51.464;-0.066;2024-03-06T06:25:47;58.57;;;20.80;;
60354;SDS011;46198;51.464;-0.066;2024-03-06T06:28:15;51.67;;;21.13;;
60354;SDS011;46198;51.464;-0.066;2024-03-06T06:30:43;77.07;;;24.43;;
60354;SDS011;46198;51.464;-0.066;2024-03-06T06:33:13;69.63;;;23.80;;
60354;SDS011;46198;51.464;-0.066;2024-03-06T06:35:41;73.60;;;25.27;;
60354;SDS011;46198;51.464;-0.066;2024-03-06T06:38:10;66.63;;;24.43;;
60354;SDS011;46198;51.464;-0.066;2024-03-06T06:40:41;71.03;;;25.42;;
60354;SDS011;46198;51.464;-0.066;2024-03-06T06:43:10;69.37;;;25.20;;
60354;SDS011;46198;51.464;-0.066;2024-03-06T06:45:42;71.90;;;25.30;;
60354;SDS011;46198;51.464;-0.066;2024-03-06T06:48:14;74.23;;;24.97;;
60354;SDS011;46198;51.464;-0.066;2024-03-06T06:50:42;76.17;;;25.73;;
60354;SDS011;46198;51.464;-0.066;2024-03-06T06:53:10;74.03;;;26.87;;
60354;SDS011;46198;51.464;-0.066;2024-03-06T06:55:39;73.77;;;25.47;;
60354;SDS011;46198;51.464;-0.066;2024-03-06T06:58:08;79.10;;;27.13;;
60354;SDS011;46198;51.464;-0.066;2024-03-06T07:00:36;77.27;;;27.40;;
60354;SDS011;46198;51.464;-0.066;2024-03-06T07:03:04;74.43;;;26.43;;
60354;SDS011;46198;51.464;-0.066;2024-03-06T07:05:35;81.90;;;27.50;;
60354;SDS011;46198;51.464;-0.066;2024-03-06T07:08:05;74.10;;;25.50;;
60354;SDS011;46198;51.464;-0.066;2024-03-06T07:10:35;75.83;;;27.50;;
60354;SDS011;46198;51.464;-0.066;2024-03-06T07:13:09;72.87;;;26.83;;
60354;SDS011;46198;51.464;-0.066;2024-03-06T07:15:37;77.70;;;27.13;;
60354;SDS011;46198;51.464;-0.066;2024-03-06T07:18:05;78.50;;;27.93;;
60354;SDS011;46198;51.464;-0.066;2024-03-06T07:20:36;73.80;;;27.53;;
60354;SDS011;46198;51.464;-0.066;2024-03-06T07:23:04;75.27;;;25.63;;
60354;SDS011;46198;51.464;-0.066;2024-03-06T07:25:33;90.80;;;30.03;;
60354;SDS011;46198;51.464;-0.066;2024-03-06T07:28:03;87.30;;;28.83;;
60354;SDS011;46198;51.464;-0.066;2024-03-06T07:30:31;81.23;;;29.93;;
60354;SDS011;46198;51.464;-0.066;2024-03-06T07:33:00;83.80;;;29.87;;
60354;SDS011;46198;51.464;-0.066;2024-03-06T07:35:29;74.33;;;26.07;;
60354;SDS011;46198;51.464;-0.066;2024-03-06T07:37:59;78.00;;;27.40;;
60354;SDS011;46198;51.464;-0.066;2024-03-06T07:40:28;74.30;;;27.43;;
60354;SDS011;46198;51.464;-0.066;2024-03-06T07:42:56;79.63;;;26.23;;
60354;SDS011;46198;51.464;-0.066;2024-03-06T07:45:26;78.30;;;27.73;;
60354;SDS011;46198;51.464;-0.066;2024-03-06T07:47:55;85.70;;;30.23;;
60354;SDS011;46198;51.464;-0.066;2024-03-06T07:50:26;80.97;;;29.00;;
60354;SDS011;46198;51.464;-0.066;2024-03-06T07:52:54;85.87;;;29.77;;
60354;SDS011;46198;51.464;-0.066;2024-03-06T07:55:24;84.27;;;28.70;;
60354;SDS011;46198;51.464;-0.066;2024-03-06T07:57:52;82.67;;;29.67;;
60354;SDS011;46198;51.464;-0.066;2024-03-06T08:00:20;83.80;;;27.87;;
60354;SDS011;46198;51.464;-0.066;2024-03-06T08:02:49;80.63;;;28.40;;
60354;SDS011;46198;51.464;-0.066;2024-03-06T08:05:17;87.83;;;28.97;;
60354;SDS011;46198;51.464;-0.066;2024-03-06T08:07:46;77.20;;;28.00;;
60354;SDS011;46198;51.464;-0.066;2024-03-06T08:10:14;82.13;;;30.47;;
60354;SDS011;46198;51.464;-0.066;2024-03-06T08:15:17;82.97;;;28.53;;
60354;SDS011;46198;51.464;-0.066;2024-03-06T08:17:45;81.43;;;27.27;;
60354;SDS011;46198;51.464;-0.066;2024-03-06T08:20:14;78.17;;;27.90;;
60354;SDS011;46198;51.464;-0.066;2024-03-06T08:22:42;78.83;;;29.50;;
60354;SDS011;46198;51.464;-0.066;2024-03-06T08:25:11;82.53;;;30.07;;
60354;SDS011;46198;51.464;-0.066;2024-03-06T08:27:40;72.47;;;28.03;;
60354;SDS011;46198;51.464;-0.066;2024-03-06T08:30:10;79.27;;;29.77;;
60354;SDS011;46198;51.464;-0.066;2024-03-06T08:32:39;81.72;;;28.23;;
60354;SDS011;46198;51.464;-0.066;2024-03-06T08:38:05;77.87;;;27.37;;
60354;SDS011;46198;51.464;-0.066;2024-03-06T08:40:34;78.10;;;27.60;;
60354;SDS011;46198;51.464;-0.066;2024-03-06T08:43:04;79.95;;;27.58;;
60354;SDS011;46198;51.464;-0.066;2024-03-06T08:45:33;77.80;;;28.47;;
60354;SDS011;46198;51.464;-0.066;2024-03-06T08:48:02;80.80;;;30.50;;
60354;SDS011;46198;51.464;-0.066;2024-03-06T08:50:30;83.37;;;29.20;;
60354;SDS011;46198;51.464;-0.066;2024-03-06T08:52:59;84.93;;;28.47;;
60354;SDS011;46198;51.464;-0.066;2024-03-06T08:55:28;85.17;;;32.23;;
60354;SDS011;46198;51.464;-0.066;2024-03-06T08:57:56;84.83;;;30.17;;
60354;SDS011;46198;51.464;-0.066;2024-03-06T09:00:25;82.00;;;29.63;;
60354;SDS011;46198;51.464;-0.066;2024-03-06T09:02:54;83.90;;;29.57;;
60354;SDS011;46198;51.464;-0.066;2024-03-06T09:05:24;82.43;;;29.43;;
60354;SDS011;46198;51.464;-0.066;2024-03-06T09:07:53;74.50;;;28.05;;
60354;SDS011;46198;51.464;-0.066;2024-03-06T09:10:27;87.27;;;31.03;;
60354;SDS011;46198;51.464;-0.066;2024-03-06T09:12:56;79.90;;;28.47;;
60354;SDS011;46198;51.464;-0.066;2024-03-06T09:15:24;82.70;;;29.87;;
60354;SDS011;46198;51.464;-0.066;2024-03-06T09:17:54;82.07;;;29.77;;
60354;SDS011;46198;51.464;-0.066;2024-03-06T09:20:22;70.60;;;25.63;;
60354;SDS011;46198;51.464;-0.066;2024-03-06T09:22:51;73.27;;;26.60;;
60354;SDS011;46198;51.464;-0.066;2024-03-06T09:25:21;71.47;;;25.40;;
60354;SDS011;46198;51.464;-0.066;2024-03-06T09:27:52;79.47;;;28.63;;
60354;SDS011;46198;51.464;-0.066;2024-03-06T09:30:21;73.80;;;28.67;;
60354;SDS011;46198;51.464;-0.066;2024-03-06T09:32:49;71.23;;;25.97;;
60354;SDS011;46198;51.464;-0.066;2024-03-06T09:35:19;75.97;;;27.03;;
60354;SDS011;46198;51.464;-0.066;2024-03-06T09:37:47;70.67;;;27.47;;
60354;SDS011;46198;51.464;-0.066;2024-03-06T09:40:19;74.70;;;27.43;;
60354;SDS011;46198;51.464;-0.066;2024-03-06T09:42:49;71.73;;;26.33;;
60354;SDS011;46198;51.464;-0.066;2024-03-06T09:45:17;67.43;;;24.40;;
60354;SDS011;46198;51.464;-0.066;2024-03-06T09:47:46;64.87;;;24.80;;
60354;SDS011;46198;51.464;-0.066;2024-03-06T09:50:20;70.50;;;26.47;;
60354;SDS011;46198;51.464;-0.066;2024-03-06T09:52:51;68.60;;;27.13;;
60354;SDS011;46198;51.464;-0.066;2024-03-06T09:55:21;62.43;;;24.67;;
60354;SDS011;46198;51.464;-0.066;2024-03-06T09:57:49;64.47;;;26.20;;
60354;SDS011;46198;51.464;-0.066;2024-03-06T10:00:17;61.97;;;25.97;;
60354;SDS011;46198;51.464;-0.066;2024-03-06T10:02:50;61.13;;;23.63;;
60354;SDS011;46198;51.464;-0.066;2024-03-06T10:05:23;63.27;;;24.20;;
60354;SDS011;46198;51.464;-0.066;2024-03-06T10:07:52;62.23;;;23.33;;
60354;SDS011;46198;51.464;-0.066;2024-03-06T10:10:21;61.80;;;24.00;;
60354;SDS011;46198;51.464;-0.066;2024-03-06T10:12:50;55.17;;;21.50;;
60354;SDS011;46198;51.464;-0.066;2024-03-06T10:15:18;58.93;;;23.30;;
60354;SDS011;46198;51.464;-0.066;2024-03-06T10:17:48;58.67;;;22.50;;
60354;SDS011;46198;51.464;-0.066;2024-03-06T10:20:18;62.80;;;23.83;;
60354;SDS011;46198;51.464;-0.066;2024-03-06T10:22:50;52.53;;;21.55;;
60354;SDS011;46198;51.464;-0.066;2024-03-06T10:25:24;60.17;;;23.50;;
60354;SDS011;46198;51.464;-0.066;2024-03-06T10:28:07;61.57;;;24.10;;
60354;SDS011;46198;51.464;-0.066;2024-03-06T10:30:37;58.83;;;23.63;;
60354;SDS011;46198;51.464;-0.066;2024-03-06T10:33:10;51.83;;;21.97;;
60354;SDS011;46198;51.464;-0.066;2024-03-06T10:35:39;57.70;;;23.17;;
60354;SDS011;46198;51.464;-0.066;2024-03-06T10:38:10;54.63;;;23.75;;
60354;SDS011;46198;51.464;-0.066;2024-03-06T10:40:40;54.50;;;22.35;;
60354;SDS011;46198;51.464;-0.066;2024-03-06T10:43:09;50.38;;;21.80;;
60354;SDS011;46198;51.464;-0.066;2024-03-06T10:45:43;50.63;;;20.87;;
60354;SDS011;46198;51.464;-0.066;2024-03-06T10:48:16;52.47;;;21.00;;
60354;SDS011;46198;51.464;-0.066;2024-03-06T10:50:45;49.20;;;20.33;;
60354;SDS011;46198;51.464;-0.066;2024-03-06T10:53:18;53.92;;;20.95;;
60354;SDS011;46198;51.464;-0.066;2024-03-06T10:55:50;57.88;;;21.15;;
60354;SDS011;46198;51.464;-0.066;2024-03-06T10:58:20;43.57;;;19.73;;
60354;SDS011;46198;51.464;-0.066;2024-03-06T11:00:48;48.70;;;20.60;;
60354;SDS011;46198;51.464;-0.066;2024-03-06T11:03:19;48.35;;;21.63;;
60354;SDS011;46198;51.464;-0.066;2024-03-06T11:05:47;41.80;;;18.75;;
60354;SDS011;46198;51.464;-0.066;2024-03-06T11:08:20;52.90;;;22.45;;
60354;SDS011;46198;51.464;-0.066;2024-03-06T11:13:54;47.40;;;21.65;;
60354;SDS011;46198;51.464;-0.066;2024-03-06T11:16:28;43.95;;;19.35;;
60354;SDS011;46198;51.464;-0.066;2024-03-06T11:19:06;49.00;;;20.08;;
60354;SDS011;46198;51.464;-0.066;2024-03-06T11:21:44;46.20;;;19.67;;
60354;SDS011;46198;51.464;-0.066;2024-03-06T11:24:15;45.60;;;20.25;;
60354;SDS011;46198;51.464;-0.066;2024-03-06T11:26:47;44.10;;;17.85;;
60354;SDS011;46198;51.464;-0.066;2024-03-06T11:29:17;51.57;;;21.57;;
60354;SDS011;46198;51.464;-0.066;2024-03-06T11:31:56;41.72;;;17.50;;
60354;SDS011;46198;51.464;-0.066;2024-03-06T11:34:28;40.28;;;17.38;;
60354;SDS011;46198;51.464;-0.066;2024-03-06T11:36:57;40.53;;;17.58;;
60354;SDS011;46198;51.464;-0.066;2024-03-06T11:39:32;37.45;;;16.60;;
60354;SDS011;46198;51.464;-0.066;2024-03-06T11:42:03;43.35;;;18.27;;
60354;SDS011;46198;51.464;-0.066;2024-03-06T11:44:35;40.22;;;16.92;;
60354;SDS011;46198;51.464;-0.066;2024-03-06T11:47:05;40.38;;;15.90;;
60354;SDS011;46198;51.464;-0.066;2024-03-06T11:49:36;34.22;;;14.93;;
60354;SDS011;46198;51.464;-0.066;2024-03-06T11:52:05;31.98;;;14.18;;
60354;SDS011;46198;51.464;-0.066;2024-03-06T11:54:37;31.25;;;14.32;;
60354;SDS011;46198;51.464;-0.066;2024-03-06T11:57:06;32.53;;;14.98;;
60354;SDS011;46198;51.464;-0.066;2024-03-06T11:59:34;34.63;;;16.05;;
60354;SDS011;46198;51.464;-0.066;2024-03-06T12:04:34;34.85;;;14.95;;
60354;SDS011;46198;51.464;-0.066;2024-03-06T12:07:05;33.97;;;16.88;;
60354;SDS011;46198;51.464;-0.066;2024-03-06T12:09:38;31.40;;;15.40;;
60354;SDS011;46198;51.464;-0.066;2024-03-06T12:12:09;32.42;;;15.70;;
60354;SDS011;46198;51.464;-0.066;2024-03-06T12:14:39;32.42;;;14.48;;
60354;SDS011;46198;51.464;-0.066;2024-03-06T12:17:13;33.22;;;14.27;;
60354;SDS011;46198;51.464;-0.066;2024-03-06T12:19:43;29.50;;;13.18;;
60354;SDS011;46198;51.464;-0.066;2024-03-06T12:22:12;28.77;;;13.27;;
60354;SDS011;46198;51.464;-0.066;2024-03-06T12:24:42;28.17;;;13.25;;
60354;SDS011;46198;51.464;-0.066;2024-03-06T12:27:10;27.50;;;14.02;;
60354;SDS011;46198;51.464;-0.066;2024-03-06T12:29:40;27.67;;;14.00;;
60354;SDS011;46198;51.464;-0.066;2024-03-06T12:32:16;27.60;;;13.07;;
60354;SDS011;46198;51.464;-0.066;2024-03-06T12:34:56;24.63;;;12.40;;
60354;SDS011;46198;51.464;-0.066;2024-03-06T12:37:30;21.48;;;11.73;;
60354;SDS011;46198;51.464;-0.066;2024-03-06T12:40:00;20.25;;;10.82;;
60354;SDS011;46198;51.464;-0.066;2024-03-06T12:42:31;23.38;;;11.32;;
60354;SDS011;46198;51.464;-0.066;2024-03-06T12:44:59;19.80;;;10.63;;
60354;SDS011;46198;51.464;-0.066;2024-03-06T12:47:30;23.90;;;11.90;;
60354;SDS011;46198;51.464;-0.066;2024-03-06T12:49:59;19.05;;;10.55;;
60354;SDS011;46198;51.464;-0.066;2024-03-06T12:52:27;24.25;;;12.20;;
60354;SDS011;46198;51.464;-0.066;2024-03-06T12:54:55;22.08;;;11.18;;
60354;SDS011;46198;51.464;-0.066;2024-03-06T12:57:25;21.52;;;11.32;;
60354;SDS011;46198;51.464;-0.066;2024-03-06T12:59:54;22.58;;;11.13;;
60354;SDS011;46198;51.464;-0.066;2024-03-06T13:02:22;19.92;;;9.43;;
60354;SDS011;46198;51.464;-0.066;2024-03-06T13:04:51;16.98;;;9.68;;
60354;SDS011;46198;51.464;-0.066;2024-03-06T13:07:19;19.40;;;9.70;;
60354;SDS011;46198;51.464;-0.066;2024-03-06T13:09:47;17.17;;;9.88;;
60354;SDS011;46198;51.464;-0.066;2024-03-06T13:12:17;16.70;;;9.07;;
60354;SDS011;46198;51.464;-0.066;2024-03-06T13:14:47;19.83;;;10.23;;
60354;SDS011;46198;51.464;-0.066;2024-03-06T13:17:15;15.88;;;9.23;;
60354;SDS011;46198;51.464;-0.066;2024-03-06T13:19:45;17.10;;;9.55;;
60354;SDS011;46198;51.464;-0.066;2024-03-06T13:22:14;18.95;;;9.68;;
60354;SDS011;46198;51.464;-0.066;2024-03-06T13:24:42;18.67;;;9.88;;
60354;SDS011;46198;51.464;-0.066;2024-03-06T13:27:15;19.00;;;8.43;;
60354;SDS011;46198;51.464;-0.066;2024-03-06T13:29:43;23.05;;;11.68;;
60354;SDS011;46198;51.464;-0.066;2024-03-06T13:32:13;24.20;;;12.10;;
60354;SDS011;46198;51.464;-0.066;2024-03-06T13:34:41;26.80;;;13.25;;
60354;SDS011;46198;51.464;-0.066;2024-03-06T13:37:10;24.92;;;12.63;;
60354;SDS011;46198;51.464;-0.066;2024-03-06T13:39:38;22.48;;;11.88;;
60354;SDS011;46198;51.464;-0.066;2024-03-06T13:42:06;28.30;;;12.70;;
60354;SDS011;46198;51.464;-0.066;2024-03-06T13:44:36;24.00;;;12.55;;
60354;SDS011;46198;51.464;-0.066;2024-03-06T13:47:05;27.30;;;13.30;;
60354;SDS011;46198;51.464;-0.066;2024-03-06T13:49:36;29.02;;;13.05;;
60354;SDS011;46198;51.464;-0.066;2024-03-06T13:52:06;21.83;;;11.63;;
60354;SDS011;46198;51.464;-0.066;2024-03-06T13:54:37;18.88;;;9.07;;
60354;SDS011;46198;51.464;-0.066;2024-03-06T13:57:06;15.20;;;8.60;;
60354;SDS011;46198;51.464;-0.066;2024-03-06T13:59:35;15.27;;;8.02;;
60354;SDS011;46198;51.464;-0.066;2024-03-06T14:02:06;14.52;;;8.85;;
60354;SDS011;46198;51.464;-0.066;2024-03-06T14:04:35;17.38;;;8.75;;
60354;SDS011;46198;51.464;-0.066;2024-03-06T14:07:04;15.15;;;8.80;;
60354;SDS011;46198;51.464;-0.066;2024-03-06T14:09:32;17.88;;;8.90;;
60354;SDS011;46198;51.464;-0.066;2024-03-06T14:12:01;16.77;;;9.05;;
60354;SDS011;46198;51.464;-0.066;2024-03-06T14:14:29;18.48;;;9.32;;
60354;SDS011;46198;51.464;-0.066;2024-03-06T14:16:58;17.58;;;9.45;;
60354;SDS011;46198;51.464;-0.066;2024-03-06T14:19:30;17.42;;;9.68;;
60354;SDS011;46198;51.464;-0.066;2024-03-06T14:22:00;18.15;;;10.18;;
60354;SDS011;46198;51.464;-0.066;2024-03-06T14:24:31;18.92;;;9.70;;
60354;SDS011;46198;51.464;-0.066;2024-03-06T14:26:59;18.30;;;9.77;;
60354;SDS011;46198;51.464;-0.066;2024-03-06T14:29:27;15.65;;;9.07;;
60354;SDS011;46198;51.464;-0.066;2024-03-06T14:31:56;16.60;;;8.57;;
60354;SDS011;46198;51.464;-0.066;2024-03-06T14:34:26;21.42;;;9.98;;
60354;SDS011;46198;51.464;-0.066;2024-03-06T14:36:57;22.40;;;11.40;;
60354;SDS011;46198;51.464;-0.066;2024-03-06T14:39:27;21.08;;;11.63;;
60354;SDS011;46198;51.464;-0.066;2024-03-06T14:41:56;23.08;;;11.40;;
60354;SDS011;46198;51.464;-0.066;2024-03-06T14:44:24;23.48;;;11.65;;
60354;SDS011;46198;51.464;-0.066;2024-03-06T14:46:53;24.73;;;11.60;;
60354;SDS011;46198;51.464;-0.066;2024-03-06T14:49:21;21.98;;;11.70;;
60354;SDS011;46198;51.464;-0.066;2024-03-06T14:51:49;22.35;;;10.02;;
60354;SDS011;46198;51.464;-0.066;2024-03-06T14:54:17;18.70;;;9.70;;
60354;SDS011;46198;51.464;-0.066;2024-03-06T14:56:47;20.38;;;10.15;;
60354;SDS011;46198;51.464;-0.066;2024-03-06T14:59:15;19.60;;;10.70;;
60354;SDS011;46198;51.464;-0.066;2024-03-06T15:01:44;23.38;;;11.95;;
60354;SDS011;46198;51.464;-0.066;2024-03-06T15:04:13;23.35;;;12.23;;